sensor_id;sensor_type;location;lat;lon;timestamp;P1;durP1;ratioP1;P2;durP2;ratioP2
22922;SDS011;11627;51.322;22.816;2024-03-07T00:00:07;32.20;;;15.10;;
22922;SDS011;11627;51.322;22.816;2024-03-07T00:02:44;34.22;;;14.10;;
22922;SDS011;11627;51.322;22.816;2024-03-07T00:05:19;30.55;;;14.38;;
22922;SDS011;11627;51.322;22.816;2024-03-07T00:08:02;27.40;;;13.23;;
22922;SDS011;11627;51.322;22.816;2024-03-07T00:10:29;30.15;;;13.85;;
22922;SDS011;11627;51.322;22.816;2024-03-07T00:12:55;34.58;;;14.30;;
22922;SDS011;11627;51.322;22.816;2024-03-07T00:15:22;35.47;;;14.05;;
22922;SDS011;11627;51.322;22.816;2024-03-07T00:17:48;33.85;;;14.23;;
22922;SDS011;11627;51.322;22.816;2024-03-07T00:20:14;32.65;;;15.20;;
22922;SDS011;11627;51.322;22.816;2024-03-07T00:22:44;39.38;;;15.00;;
22922;SDS011;11627;51.322;22.816;2024-03-07T00:25:11;29.63;;;14.23;;
22922;SDS011;11627;51.322;22.816;2024-03-07T00:27:38;33.00;;;14.75;;
22922;SDS011;11627;51.322;22.816;2024-03-07T00:30:07;31.38;;;14.65;;
22922;SDS011;11627;51.322;22.816;2024-03-07T00:32:33;34.63;;;15.38;;
22922;SDS011;11627;51.322;22.816;2024-03-07T00:35:04;32.10;;;14.85;;
22922;SDS011;11627;51.322;22.816;2024-03-07T00:37:33;31.77;;;14.20;;
22922;SDS011;11627;51.322;22.816;2024-03-07T00:40:02;31.50;;;15.32;;
22922;SDS011;11627;51.322;22.816;2024-03-07T00:42:28;29.88;;;13.95;;
22922;SDS011;11627;51.322;22.816;2024-03-07T00:44:54;32.50;;;14.75;;
22922;SDS011;11627;51.322;22.816;2024-03-07T00:47:21;30.23;;;14.48;;
22922;SDS011;11627;51.322;22.816;2024-03-07T00:49:48;30.90;;;13.63;;
22922;SDS011;11627;51.322;22.816;2024-03-07T00:52:14;29.02;;;13.60;;
22922;SDS011;11627;51.322;22.816;2024-03-07T00:54:40;29.98;;;14.43;;
22922;SDS011;11627;51.322;22.816;2024-03-07T00:57:07;38.25;;;14.57;;
22922;SDS011;11627;51.322;22.816;2024-03-07T00:59:35;29.00;;;14.32;;
22922;SDS011;11627;51.322;22.816;2024-03-07T01:02:02;30.98;;;13.60;;
22922;SDS011;11627;51.322;22.816;2024-03-07T01:04:28;31.00;;;13.77;;
22922;SDS011;11627;51.322;22.816;2024-03-07T01:07:00;30.08;;;13.65;;
22922;SDS011;11627;51.322;22.816;2024-03-07T01:09:28;30.17;;;14.25;;
22922;SDS011;11627;51.322;22.816;2024-03-07T01:11:54;27.70;;;14.02;;
22922;SDS011;11627;51.322;22.816;2024-03-07T01:14:22;27.02;;;12.70;;
22922;SDS011;11627;51.322;22.816;2024-03-07T01:16:48;28.85;;;13.57;;
22922;SDS011;11627;51.322;22.816;2024-03-07T01:19:14;28.98;;;12.82;;
22922;SDS011;11627;51.322;22.816;2024-03-07T01:21:42;27.67;;;13.27;;
22922;SDS011;11627;51.322;22.816;2024-03-07T01:24:07;26.88;;;13.52;;
22922;SDS011;11627;51.322;22.816;2024-03-07T01:26:34;26.42;;;13.23;;
22922;SDS011;11627;51.322;22.816;2024-03-07T01:29:00;26.50;;;13.32;;
22922;SDS011;11627;51.322;22.816;2024-03-07T01:31:27;28.67;;;12.93;;
22922;SDS011;11627;51.322;22.816;2024-03-07T01:33:53;24.60;;;11.57;;
22922;SDS011;11627;51.322;22.816;2024-03-07T01:36:20;26.92;;;12.90;;
22922;SDS011;11627;51.322;22.816;2024-03-07T01:38:47;25.27;;;12.38;;
22922;SDS011;11627;51.322;22.816;2024-03-07T01:41:14;27.90;;;12.57;;
22922;SDS011;11627;51.322;22.816;2024-03-07T01:43:41;27.38;;;12.32;;
22922;SDS011;11627;51.322;22.816;2024-03-07T01:46:09;23.85;;;11.98;;
22922;SDS011;11627;51.322;22.816;2024-03-07T01:48:38;23.83;;;11.88;;
22922;SDS011;11627;51.322;22.816;2024-03-07T01:51:05;25.98;;;12.02;;
22922;SDS011;11627;51.322;22.816;2024-03-07T01:53:33;24.38;;;11.85;;
22922;SDS011;11627;51.322;22.816;2024-03-07T01:56:00;22.85;;;12.00;;
22922;SDS011;11627;51.322;22.816;2024-03-07T01:58:27;23.80;;;11.75;;
22922;SDS011;11627;51.322;22.816;2024-03-07T02:00:56;23.42;;;11.50;;
22922;SDS011;11627;51.322;22.816;2024-03-07T02:03:26;22.20;;;10.75;;
22922;SDS011;11627;51.322;22.816;2024-03-07T02:05:53;25.77;;;11.23;;
22922;SDS011;11627;51.322;22.816;2024-03-07T02:08:21;21.95;;;10.85;;
22922;SDS011;11627;51.322;22.816;2024-03-07T02:10:47;24.23;;;10.70;;
22922;SDS011;11627;51.322;22.816;2024-03-07T02:13:14;22.45;;;11.70;;
22922;SDS011;11627;51.322;22.816;2024-03-07T02:15:41;24.85;;;10.43;;
22922;SDS011;11627;51.322;22.816;2024-03-07T02:18:09;26.63;;;11.90;;
22922;SDS011;11627;51.322;22.816;2024-03-07T02:20:35;27.33;;;12.15;;
22922;SDS011;11627;51.322;22.816;2024-03-07T02:23:02;22.40;;;11.38;;
22922;SDS011;11627;51.322;22.816;2024-03-07T02:25:30;23.60;;;11.63;;
22922;SDS011;11627;51.322;22.816;2024-03-07T02:27:57;24.33;;;11.32;;
22922;SDS011;11627;51.322;22.816;2024-03-07T02:30:23;27.27;;;12.07;;
22922;SDS011;11627;51.322;22.816;2024-03-07T02:32:51;31.75;;;12.05;;
22922;SDS011;11627;51.322;22.816;2024-03-07T02:35:21;26.65;;;11.93;;
22922;SDS011;11627;51.322;22.816;2024-03-07T02:37:48;23.73;;;11.02;;
22922;SDS011;11627;51.322;22.816;2024-03-07T02:40:14;21.35;;;9.95;;
22922;SDS011;11627;51.322;22.816;2024-03-07T02:42:42;22.00;;;10.75;;
22922;SDS011;11627;51.322;22.816;2024-03-07T02:45:08;22.05;;;10.07;;
22922;SDS011;11627;51.322;22.816;2024-03-07T02:47:35;17.58;;;8.93;;
22922;SDS011;11627;51.322;22.816;2024-03-07T02:50:04;23.00;;;11.40;;
22922;SDS011;11627;51.322;22.816;2024-03-07T02:52:33;21.80;;;10.77;;
22922;SDS011;11627;51.322;22.816;2024-03-07T02:55:00;21.73;;;10.60;;
22922;SDS011;11627;51.322;22.816;2024-03-07T02:57:31;22.65;;;10.15;;
22922;SDS011;11627;51.322;22.816;2024-03-07T02:59:57;20.98;;;10.40;;
22922;SDS011;11627;51.322;22.816;2024-03-07T03:02:23;23.48;;;11.10;;
22922;SDS011;11627;51.322;22.816;2024-03-07T03:04:48;23.10;;;10.50;;
22922;SDS011;11627;51.322;22.816;2024-03-07T03:07:16;20.08;;;9.18;;
22922;SDS011;11627;51.322;22.816;2024-03-07T03:09:44;20.00;;;9.50;;
22922;SDS011;11627;51.322;22.816;2024-03-07T03:12:13;20.70;;;9.90;;
22922;SDS011;11627;51.322;22.816;2024-03-07T03:14:40;19.70;;;10.38;;
22922;SDS011;11627;51.322;22.816;2024-03-07T03:17:07;22.13;;;10.07;;
22922;SDS011;11627;51.322;22.816;2024-03-07T03:19:34;19.50;;;9.77;;
22922;SDS011;11627;51.322;22.816;2024-03-07T03:22:01;20.90;;;9.88;;
22922;SDS011;11627;51.322;22.816;2024-03-07T03:24:28;18.67;;;9.68;;
22922;SDS011;11627;51.322;22.816;2024-03-07T03:26:55;18.48;;;9.73;;
22922;SDS011;11627;51.322;22.816;2024-03-07T03:29:22;20.63;;;10.10;;
22922;SDS011;11627;51.322;22.816;2024-03-07T03:31:48;21.90;;;9.45;;
22922;SDS011;11627;51.322;22.816;2024-03-07T03:34:14;18.98;;;9.85;;
22922;SDS011;11627;51.322;22.816;2024-03-07T03:36:40;18.10;;;9.57;;
22922;SDS011;11627;51.322;22.816;2024-03-07T03:39:06;20.60;;;10.15;;
22922;SDS011;11627;51.322;22.816;2024-03-07T03:41:37;24.98;;;9.93;;
22922;SDS011;11627;51.322;22.816;2024-03-07T03:44:03;18.60;;;9.48;;
22922;SDS011;11627;51.322;22.816;2024-03-07T03:46:29;19.90;;;9.82;;
22922;SDS011;11627;51.322;22.816;2024-03-07T03:48:56;24.33;;;10.45;;
22922;SDS011;11627;51.322;22.816;2024-03-07T03:51:25;18.45;;;9.35;;
22922;SDS011;11627;51.322;22.816;2024-03-07T03:53:53;22.13;;;10.52;;
22922;SDS011;11627;51.322;22.816;2024-03-07T03:56:21;17.60;;;9.05;;
22922;SDS011;11627;51.322;22.816;2024-03-07T03:58:50;21.13;;;9.85;;
22922;SDS011;11627;51.322;22.816;2024-03-07T04:01:17;17.25;;;9.55;;
22922;SDS011;11627;51.322;22.816;2024-03-07T04:03:45;20.17;;;9.55;;
22922;SDS011;11627;51.322;22.816;2024-03-07T04:06:14;20.55;;;8.82;;
22922;SDS011;11627;51.322;22.816;2024-03-07T04:08:40;14.77;;;9.10;;
22922;SDS011;11627;51.322;22.816;2024-03-07T04:11:08;20.15;;;9.32;;
22922;SDS011;11627;51.322;22.816;2024-03-07T04:13:35;18.33;;;9.55;;
22922;SDS011;11627;51.322;22.816;2024-03-07T04:16:02;15.38;;;8.40;;
22922;SDS011;11627;51.322;22.816;2024-03-07T04:18:31;16.40;;;9.25;;
22922;SDS011;11627;51.322;22.816;2024-03-07T04:20:57;19.65;;;8.75;;
22922;SDS011;11627;51.322;22.816;2024-03-07T04:23:23;16.60;;;8.88;;
22922;SDS011;11627;51.322;22.816;2024-03-07T04:25:51;17.40;;;8.23;;
22922;SDS011;11627;51.322;22.816;2024-03-07T04:28:18;16.60;;;8.18;;
22922;SDS011;11627;51.322;22.816;2024-03-07T04:30:45;18.88;;;8.32;;
22922;SDS011;11627;51.322;22.816;2024-03-07T04:33:15;16.98;;;8.20;;
22922;SDS011;11627;51.322;22.816;2024-03-07T04:35:43;17.33;;;9.00;;
22922;SDS011;11627;51.322;22.816;2024-03-07T04:38:10;18.83;;;8.35;;
22922;SDS011;11627;51.322;22.816;2024-03-07T04:40:41;15.15;;;8.15;;
22922;SDS011;11627;51.322;22.816;2024-03-07T04:43:09;15.13;;;7.95;;
22922;SDS011;11627;51.322;22.816;2024-03-07T04:45:34;18.13;;;8.43;;
22922;SDS011;11627;51.322;22.816;2024-03-07T04:48:00;15.88;;;8.02;;
22922;SDS011;11627;51.322;22.816;2024-03-07T04:50:27;16.55;;;7.90;;
22922;SDS011;11627;51.322;22.816;2024-03-07T04:52:55;21.55;;;8.25;;
22922;SDS011;11627;51.322;22.816;2024-03-07T04:55:24;19.38;;;8.63;;
22922;SDS011;11627;51.322;22.816;2024-03-07T04:57:51;16.98;;;8.38;;
22922;SDS011;11627;51.322;22.816;2024-03-07T05:00:17;16.67;;;7.57;;
22922;SDS011;11627;51.322;22.816;2024-03-07T05:02:47;15.55;;;7.88;;
22922;SDS011;11627;51.322;22.816;2024-03-07T05:05:16;15.73;;;8.43;;
22922;SDS011;11627;51.322;22.816;2024-03-07T05:07:49;14.48;;;7.80;;
22922;SDS011;11627;51.322;22.816;2024-03-07T05:10:16;15.85;;;8.65;;
22922;SDS011;11627;51.322;22.816;2024-03-07T05:12:45;16.02;;;8.55;;
22922;SDS011;11627;51.322;22.816;2024-03-07T05:15:11;15.23;;;8.55;;
22922;SDS011;11627;51.322;22.816;2024-03-07T05:17:37;16.60;;;7.95;;
22922;SDS011;11627;51.322;22.816;2024-03-07T05:20:05;14.85;;;8.02;;
22922;SDS011;11627;51.322;22.816;2024-03-07T05:22:35;17.88;;;7.68;;
22922;SDS011;11627;51.322;22.816;2024-03-07T05:25:19;16.60;;;7.75;;
22922;SDS011;11627;51.322;22.816;2024-03-07T05:27:47;17.00;;;8.60;;
22922;SDS011;11627;51.322;22.816;2024-03-07T05:30:17;15.27;;;7.90;;
22922;SDS011;11627;51.322;22.816;2024-03-07T05:32:48;17.85;;;8.02;;
22922;SDS011;11627;51.322;22.816;2024-03-07T05:35:15;16.00;;;8.70;;
22922;SDS011;11627;51.322;22.816;2024-03-07T05:37:41;17.95;;;7.85;;
22922;SDS011;11627;51.322;22.816;2024-03-07T05:40:11;16.35;;;7.97;;
22922;SDS011;11627;51.322;22.816;2024-03-07T05:42:39;15.10;;;7.90;;
22922;SDS011;11627;51.322;22.816;2024-03-07T05:45:06;14.98;;;8.00;;
22922;SDS011;11627;51.322;22.816;2024-03-07T05:47:34;15.57;;;7.85;;
22922;SDS011;11627;51.322;22.816;2024-03-07T05:50:02;17.80;;;8.27;;
22922;SDS011;11627;51.322;22.816;2024-03-07T05:52:30;14.45;;;7.90;;
22922;SDS011;11627;51.322;22.816;2024-03-07T05:54:56;14.75;;;7.65;;
22922;SDS011;11627;51.322;22.816;2024-03-07T05:57:23;19.55;;;8.73;;
22922;SDS011;11627;51.322;22.816;2024-03-07T05:59:50;14.65;;;7.40;;
22922;SDS011;11627;51.322;22.816;2024-03-07T06:02:16;20.60;;;8.00;;
22922;SDS011;11627;51.322;22.816;2024-03-07T06:04:43;14.32;;;7.85;;
22922;SDS011;11627;51.322;22.816;2024-03-07T06:07:11;18.30;;;8.25;;
22922;SDS011;11627;51.322;22.816;2024-03-07T06:09:38;15.30;;;7.45;;
22922;SDS011;11627;51.322;22.816;2024-03-07T06:12:06;17.83;;;8.10;;
22922;SDS011;11627;51.322;22.816;2024-03-07T06:14:34;12.65;;;6.10;;
22922;SDS011;11627;51.322;22.816;2024-03-07T06:17:00;16.27;;;7.50;;
22922;SDS011;11627;51.322;22.816;2024-03-07T06:19:26;17.20;;;7.97;;
22922;SDS011;11627;51.322;22.816;2024-03-07T06:21:53;17.77;;;8.05;;
22922;SDS011;11627;51.322;22.816;2024-03-07T06:24:24;16.92;;;8.75;;
22922;SDS011;11627;51.322;22.816;2024-03-07T06:26:53;15.20;;;7.60;;
22922;SDS011;11627;51.322;22.816;2024-03-07T06:29:29;16.67;;;7.70;;
22922;SDS011;11627;51.322;22.816;2024-03-07T06:31:57;14.85;;;8.10;;
22922;SDS011;11627;51.322;22.816;2024-03-07T06:34:26;14.88;;;7.32;;
22922;SDS011;11627;51.322;22.816;2024-03-07T06:36:54;14.02;;;7.13;;
22922;SDS011;11627;51.322;22.816;2024-03-07T06:39:21;14.20;;;7.72;;
22922;SDS011;11627;51.322;22.816;2024-03-07T06:41:47;15.55;;;7.28;;
22922;SDS011;11627;51.322;22.816;2024-03-07T06:44:13;13.52;;;7.45;;
22922;SDS011;11627;51.322;22.816;2024-03-07T06:46:39;17.63;;;7.28;;
22922;SDS011;11627;51.322;22.816;2024-03-07T06:49:05;13.90;;;7.18;;
22922;SDS011;11627;51.322;22.816;2024-03-07T06:51:36;11.73;;;5.22;;
22922;SDS011;11627;51.322;22.816;2024-03-07T06:54:02;16.27;;;7.65;;
22922;SDS011;11627;51.322;22.816;2024-03-07T06:56:30;17.02;;;6.93;;
22922;SDS011;11627;51.322;22.816;2024-03-07T06:58:56;13.18;;;6.90;;
22922;SDS011;11627;51.322;22.816;2024-03-07T07:01:23;14.82;;;6.78;;
22922;SDS011;11627;51.322;22.816;2024-03-07T07:03:49;14.73;;;7.32;;
22922;SDS011;11627;51.322;22.816;2024-03-07T07:06:15;14.70;;;7.22;;
22922;SDS011;11627;51.322;22.816;2024-03-07T07:08:42;13.85;;;6.88;;
22922;SDS011;11627;51.322;22.816;2024-03-07T07:11:11;17.88;;;7.35;;
22922;SDS011;11627;51.322;22.816;2024-03-07T07:13:39;13.07;;;6.95;;
22922;SDS011;11627;51.322;22.816;2024-03-07T07:16:06;15.75;;;6.72;;
22922;SDS011;11627;51.322;22.816;2024-03-07T07:18:33;20.10;;;6.93;;
22922;SDS011;11627;51.322;22.816;2024-03-07T07:21:01;10.45;;;5.07;;
22922;SDS011;11627;51.322;22.816;2024-03-07T07:23:28;12.13;;;6.32;;
22922;SDS011;11627;51.322;22.816;2024-03-07T07:25:56;11.13;;;6.00;;
22922;SDS011;11627;51.322;22.816;2024-03-07T07:28:22;10.32;;;5.97;;
22922;SDS011;11627;51.322;22.816;2024-03-07T07:30:49;12.32;;;6.97;;
22922;SDS011;11627;51.322;22.816;2024-03-07T07:33:16;11.02;;;6.28;;
22922;SDS011;11627;51.322;22.816;2024-03-07T07:35:43;13.50;;;6.50;;
22922;SDS011;11627;51.322;22.816;2024-03-07T07:38:12;13.27;;;6.63;;
22922;SDS011;11627;51.322;22.816;2024-03-07T07:40:41;11.70;;;6.65;;
22922;SDS011;11627;51.322;22.816;2024-03-07T07:43:08;11.15;;;6.20;;
22922;SDS011;11627;51.322;22.816;2024-03-07T07:45:39;13.52;;;6.63;;
22922;SDS011;11627;51.322;22.816;2024-03-07T07:48:07;12.63;;;6.30;;
22922;SDS011;11627;51.322;22.816;2024-03-07T07:50:36;14.52;;;7.15;;
22922;SDS011;11627;51.322;22.816;2024-03-07T07:53:03;11.93;;;6.82;;
22922;SDS011;11627;51.322;22.816;2024-03-07T07:55:35;12.90;;;6.50;;
22922;SDS011;11627;51.322;22.816;2024-03-07T07:58:02;13.65;;;7.35;;
22922;SDS011;11627;51.322;22.816;2024-03-07T08:00:29;13.93;;;7.22;;
22922;SDS011;11627;51.322;22.816;2024-03-07T08:03:00;17.17;;;7.32;;
22922;SDS011;11627;51.322;22.816;2024-03-07T08:05:45;13.27;;;6.88;;
22922;SDS011;11627;51.322;22.816;2024-03-07T08:08:12;11.85;;;7.28;;
22922;SDS011;11627;51.322;22.816;2024-03-07T08:10:42;14.60;;;7.00;;
22922;SDS011;11627;51.322;22.816;2024-03-07T08:13:13;12.82;;;7.00;;
22922;SDS011;11627;51.322;22.816;2024-03-07T08:15:40;11.23;;;6.63;;
22922;SDS011;11627;51.322;22.816;2024-03-07T08:18:08;13.70;;;7.40;;
22922;SDS011;11627;51.322;22.816;2024-03-07T08:20:35;12.70;;;6.93;;
22922;SDS011;11627;51.322;22.816;2024-03-07T08:23:05;20.38;;;7.15;;
22922;SDS011;11627;51.322;22.816;2024-03-07T08:25:32;14.02;;;7.20;;
22922;SDS011;11627;51.322;22.816;2024-03-07T08:27:58;15.38;;;7.78;;
22922;SDS011;11627;51.322;22.816;2024-03-07T08:30:25;15.15;;;8.07;;
22922;SDS011;11627;51.322;22.816;2024-03-07T08:32:55;12.60;;;7.63;;
22922;SDS011;11627;51.322;22.816;2024-03-07T08:35:22;17.85;;;8.48;;
22922;SDS011;11627;51.322;22.816;2024-03-07T08:37:49;18.55;;;8.05;;
22922;SDS011;11627;51.322;22.816;2024-03-07T08:40:21;18.13;;;9.05;;
22922;SDS011;11627;51.322;22.816;2024-03-07T08:43:01;17.90;;;8.90;;
22922;SDS011;11627;51.322;22.816;2024-03-07T08:45:29;16.98;;;8.00;;
22922;SDS011;11627;51.322;22.816;2024-03-07T08:48:00;20.42;;;8.00;;
22922;SDS011;11627;51.322;22.816;2024-03-07T08:50:33;15.05;;;8.57;;
22922;SDS011;11627;51.322;22.816;2024-03-07T08:53:02;22.80;;;8.85;;
22922;SDS011;11627;51.322;22.816;2024-03-07T08:55:30;15.35;;;8.02;;
22922;SDS011;11627;51.322;22.816;2024-03-07T08:57:56;16.20;;;8.35;;
22922;SDS011;11627;51.322;22.816;2024-03-07T09:00:22;13.27;;;8.00;;
22922;SDS011;11627;51.322;22.816;2024-03-07T09:02:54;16.30;;;8.43;;
22922;SDS011;11627;51.322;22.816;2024-03-07T09:05:29;15.95;;;8.38;;
22922;SDS011;11627;51.322;22.816;2024-03-07T09:07:59;15.82;;;8.50;;
22922;SDS011;11627;51.322;22.816;2024-03-07T09:10:26;16.02;;;7.97;;
22922;SDS011;11627;51.322;22.816;2024-03-07T09:12:55;17.23;;;8.75;;
22922;SDS011;11627;51.322;22.816;2024-03-07T09:15:22;16.92;;;8.52;;
22922;SDS011;11627;51.322;22.816;2024-03-07T09:17:49;17.80;;;9.45;;
22922;SDS011;11627;51.322;22.816;2024-03-07T09:20:16;18.05;;;9.50;;
22922;SDS011;11627;51.322;22.816;2024-03-07T09:22:44;20.40;;;8.98;;
22922;SDS011;11627;51.322;22.816;2024-03-07T09:25:13;17.88;;;8.57;;
22922;SDS011;11627;51.322;22.816;2024-03-07T09:27:41;16.02;;;8.73;;
22922;SDS011;11627;51.322;22.816;2024-03-07T09:30:09;17.75;;;9.05;;
22922;SDS011;11627;51.322;22.816;2024-03-07T09:32:45;17.92;;;8.35;;
22922;SDS011;11627;51.322;22.816;2024-03-07T09:35:14;17.90;;;8.65;;
22922;SDS011;11627;51.322;22.816;2024-03-07T09:37:42;17.00;;;9.75;;
22922;SDS011;11627;51.322;22.816;2024-03-07T09:40:09;14.18;;;7.93;;
22922;SDS011;11627;51.322;22.816;2024-03-07T09:42:45;18.13;;;7.97;;
22922;SDS011;11627;51.322;22.816;2024-03-07T09:45:14;20.48;;;8.48;;
22922;SDS011;11627;51.322;22.816;2024-03-07T09:47:42;20.60;;;9.60;;
22922;SDS011;11627;51.322;22.816;2024-03-07T09:50:18;19.52;;;9.75;;
22922;SDS011;11627;51.322;22.816;2024-03-07T09:52:48;30.20;;;12.45;;
22922;SDS011;11627;51.322;22.816;2024-03-07T09:55:15;31.88;;;12.98;;
22922;SDS011;11627;51.322;22.816;2024-03-07T09:57:43;18.02;;;10.13;;
22922;SDS011;11627;51.322;22.816;2024-03-07T10:00:11;25.42;;;11.27;;
22922;SDS011;11627;51.322;22.816;2024-03-07T10:02:48;23.73;;;10.05;;
22922;SDS011;11627;51.322;22.816;2024-03-07T10:05:19;13.55;;;6.85;;
22922;SDS011;11627;51.322;22.816;2024-03-07T10:07:47;16.23;;;8.07;;
22922;SDS011;11627;51.322;22.816;2024-03-07T10:10:13;16.77;;;7.88;;
22922;SDS011;11627;51.322;22.816;2024-03-07T10:12:39;17.75;;;8.25;;
22922;SDS011;11627;51.322;22.816;2024-03-07T10:15:06;14.93;;;8.30;;
22922;SDS011;11627;51.322;22.816;2024-03-07T10:17:37;20.52;;;10.20;;
22922;SDS011;11627;51.322;22.816;2024-03-07T10:20:05;15.68;;;8.75;;
22922;SDS011;11627;51.322;22.816;2024-03-07T10:22:38;16.25;;;8.73;;
22922;SDS011;11627;51.322;22.816;2024-03-07T10:25:07;16.33;;;8.25;;
22922;SDS011;11627;51.322;22.816;2024-03-07T10:27:40;16.08;;;7.82;;
22922;SDS011;11627;51.322;22.816;2024-03-07T10:30:07;21.75;;;11.82;;
22922;SDS011;11627;51.322;22.816;2024-03-07T10:32:35;25.33;;;11.68;;
22922;SDS011;11627;51.322;22.816;2024-03-07T10:35:06;32.35;;;19.40;;
22922;SDS011;11627;51.322;22.816;2024-03-07T10:37:34;20.98;;;12.38;;
22922;SDS011;11627;51.322;22.816;2024-03-07T10:40:01;24.58;;;11.95;;
22922;SDS011;11627;51.322;22.816;2024-03-07T10:42:40;24.33;;;12.43;;
22922;SDS011;11627;51.322;22.816;2024-03-07T10:45:17;16.90;;;8.80;;
22922;SDS011;11627;51.322;22.816;2024-03-07T10:47:47;14.80;;;8.20;;
22922;SDS011;11627;51.322;22.816;2024-03-07T10:53:31;17.23;;;7.95;;
22922;SDS011;11627;51.322;22.816;2024-03-07T10:59:41;19.85;;;8.77;;
22922;SDS011;11627;51.322;22.816;2024-03-07T11:04:49;26.85;;;10.65;;
22922;SDS011;11627;51.322;22.816;2024-03-07T11:07:22;27.92;;;11.25;;
22922;SDS011;11627;51.322;22.816;2024-03-07T11:10:06;30.33;;;10.43;;
22922;SDS011;11627;51.322;22.816;2024-03-07T11:12:38;22.42;;;9.20;;
22922;SDS011;11627;51.322;22.816;2024-03-07T11:15:06;25.10;;;9.50;;
22922;SDS011;11627;51.322;22.816;2024-03-07T11:17:45;30.80;;;11.15;;
22922;SDS011;11627;51.322;22.816;2024-03-07T11:20:24;19.83;;;8.35;;
22922;SDS011;11627;51.322;22.816;2024-03-07T11:22:51;21.00;;;10.40;;
22922;SDS011;11627;51.322;22.816;2024-03-07T11:25:21;19.67;;;8.75;;
22922;SDS011;11627;51.322;22.816;2024-03-07T11:27:54;13.88;;;7.70;;
22922;SDS011;11627;51.322;22.816;2024-03-07T11:30:26;14.50;;;7.28;;
22922;SDS011;11627;51.322;22.816;2024-03-07T11:32:52;14.70;;;8.25;;
22922;SDS011;11627;51.322;22.816;2024-03-07T11:35:19;14.73;;;7.20;;
22922;SDS011;11627;51.322;22.816;2024-03-07T11:37:56;13.35;;;6.85;;
22922;SDS011;11627;51.322;22.816;2024-03-07T11:42:50;22.88;;;10.45;;
22922;SDS011;11627;51.322;22.816;2024-03-07T11:45:24;22.08;;;9.70;;
22922;SDS011;11627;51.322;22.816;2024-03-07T11:47:51;13.35;;;7.53;;
22922;SDS011;11627;51.322;22.816;2024-03-07T11:50:28;15.57;;;7.68;;
22922;SDS011;11627;51.322;22.816;2024-03-07T11:53:00;16.48;;;7.20;;
22922;SDS011;11627;51.322;22.816;2024-03-07T11:55:27;13.07;;;6.65;;
22922;SDS011;11627;51.322;22.816;2024-03-07T11:58:19;34.67;;;15.63;;
22922;SDS011;11627;51.322;22.816;2024-03-07T12:00:46;13.95;;;7.45;;
22922;SDS011;11627;51.322;22.816;2024-03-07T12:03:14;14.70;;;8.00;;
22922;SDS011;11627;51.322;22.816;2024-03-07T12:05:47;15.57;;;7.50;;
22922;SDS011;11627;51.322;22.816;2024-03-07T12:08:14;30.65;;;19.42;;
22922;SDS011;11627;51.322;22.816;2024-03-07T12:10:40;20.50;;;12.38;;
22922;SDS011;11627;51.322;22.816;2024-03-07T12:13:11;12.60;;;6.97;;
22922;SDS011;11627;51.322;22.816;2024-03-07T12:15:40;18.42;;;10.90;;
22922;SDS011;11627;51.322;22.816;2024-03-07T12:18:07;12.73;;;6.60;;
22922;SDS011;11627;51.322;22.816;2024-03-07T12:20:37;14.88;;;6.45;;
22922;SDS011;11627;51.322;22.816;2024-03-07T12:23:06;13.85;;;6.93;;
22922;SDS011;11627;51.322;22.816;2024-03-07T12:25:36;13.48;;;6.82;;
22922;SDS011;11627;51.322;22.816;2024-03-07T12:28:10;11.77;;;6.72;;
22922;SDS011;11627;51.322;22.816;2024-03-07T12:30:54;12.07;;;6.70;;
22922;SDS011;11627;51.322;22.816;2024-03-07T12:33:22;14.85;;;7.05;;
22922;SDS011;11627;51.322;22.816;2024-03-07T12:35:52;13.10;;;6.60;;
22922;SDS011;11627;51.322;22.816;2024-03-07T12:38:25;12.23;;;8.07;;
22922;SDS011;11627;51.322;22.816;2024-03-07T12:41:07;16.80;;;7.40;;
22922;SDS011;11627;51.322;22.816;2024-03-07T12:43:39;12.50;;;6.90;;
22922;SDS011;11627;51.322;22.816;2024-03-07T12:46:11;11.32;;;6.72;;
22922;SDS011;11627;51.322;22.816;2024-03-07T12:48:38;11.95;;;6.50;;
22922;SDS011;11627;51.322;22.816;2024-03-07T12:51:04;12.00;;;6.03;;
22922;SDS011;11627;51.322;22.816;2024-03-07T12:53:30;11.25;;;6.20;;
22922;SDS011;11627;51.322;22.816;2024-03-07T12:55:56;16.10;;;8.57;;
22922;SDS011;11627;51.322;22.816;2024-03-07T12:58:22;13.05;;;6.80;;
22922;SDS011;11627;51.322;22.816;2024-03-07T13:00:54;10.80;;;6.45;;
22922;SDS011;11627;51.322;22.816;2024-03-07T13:03:20;13.95;;;6.82;;
22922;SDS011;11627;51.322;22.816;2024-03-07T13:05:48;18.77;;;9.57;;
22922;SDS011;11627;51.322;22.816;2024-03-07T13:08:14;9.32;;;6.18;;
22922;SDS011;11627;51.322;22.816;2024-03-07T13:10:43;11.75;;;6.28;;
22922;SDS011;11627;51.322;22.816;2024-03-07T13:13:09;14.63;;;7.85;;
22922;SDS011;11627;51.322;22.816;2024-03-07T13:15:36;16.08;;;6.68;;
22922;SDS011;11627;51.322;22.816;2024-03-07T13:18:08;13.30;;;6.72;;
22922;SDS011;11627;51.322;22.816;2024-03-07T13:20:36;13.55;;;7.47;;
22922;SDS011;11627;51.322;22.816;2024-03-07T13:23:02;9.77;;;6.10;;
22922;SDS011;11627;51.322;22.816;2024-03-07T13:25:29;12.05;;;6.10;;
22922;SDS011;11627;51.322;22.816;2024-03-07T13:30:38;12.27;;;6.32;;
22922;SDS011;11627;51.322;22.816;2024-03-07T13:33:06;10.38;;;6.10;;
22922;SDS011;11627;51.322;22.816;2024-03-07T13:35:32;10.25;;;6.45;;
22922;SDS011;11627;51.322;22.816;2024-03-07T13:37:58;11.43;;;5.90;;
22922;SDS011;11627;51.322;22.816;2024-03-07T13:40:25;15.43;;;8.13;;
22922;SDS011;11627;51.322;22.816;2024-03-07T13:42:56;15.65;;;6.55;;
22922;SDS011;11627;51.322;22.816;2024-03-07T13:47:53;12.15;;;6.45;;
22922;SDS011;11627;51.322;22.816;2024-03-07T13:50:20;10.13;;;6.03;;
22922;SDS011;11627;51.322;22.816;2024-03-07T13:52:49;11.80;;;6.60;;
22922;SDS011;11627;51.322;22.816;2024-03-07T13:55:54;13.13;;;7.00;;
22922;SDS011;11627;51.322;22.816;2024-03-07T14:01:40;11.63;;;5.97;;
22922;SDS011;11627;51.322;22.816;2024-03-07T14:05:03;12.50;;;6.32;;
22922;SDS011;11627;51.322;22.816;2024-03-07T14:26:38;12.50;;;6.07;;
22922;SDS011;11627;51.322;22.816;2024-03-07T14:32:32;16.58;;;6.85;;
22922;SDS011;11627;51.322;22.816;2024-03-07T14:35:14;11.40;;;7.38;;
22922;SDS011;11627;51.322;22.816;2024-03-07T14:40:52;11.70;;;7.40;;
22922;SDS011;11627;51.322;22.816;2024-03-07T14:43:18;11.68;;;6.65;;
22922;SDS011;11627;51.322;22.816;2024-03-07T14:45:47;15.80;;;9.40;;
22922;SDS011;11627;51.322;22.816;2024-03-07T14:48:14;12.90;;;7.13;;
22922;SDS011;11627;51.322;22.816;2024-03-07T14:50:44;11.55;;;7.35;;
22922;SDS011;11627;51.322;22.816;2024-03-07T14:53:11;11.68;;;7.20;;
22922;SDS011;11627;51.322;22.816;2024-03-07T14:55:38;12.30;;;7.22;;
22922;SDS011;11627;51.322;22.816;2024-03-07T14:58:05;12.23;;;6.75;;
22922;SDS011;11627;51.322;22.816;2024-03-07T15:00:35;11.52;;;6.75;;
22922;SDS011;11627;51.322;22.816;2024-03-07T15:03:09;12.75;;;7.13;;
22922;SDS011;11627;51.322;22.816;2024-03-07T15:05:40;16.35;;;8.68;;
22922;SDS011;11627;51.322;22.816;2024-03-07T15:08:07;14.48;;;7.32;;
22922;SDS011;11627;51.322;22.816;2024-03-07T15:10:37;17.58;;;7.25;;
22922;SDS011;11627;51.322;22.816;2024-03-07T15:13:43;12.50;;;7.20;;